createdAt,value
2019-06-01T00:01:17.565Z,4.50
2019-06-01T00:03:46.833Z,4.63
2019-06-01T00:06:16.055Z,4.40
2019-06-01T00:08:45.337Z,4.97
2019-06-01T00:11:14.558Z,5.13
2019-06-01T00:13:44.074Z,4.93
2019-06-01T00:16:13.306Z,4.23
2019-06-01T00:18:43.912Z,4.63
2019-06-01T00:21:13.278Z,4.40
2019-06-01T00:23:42.637Z,4.87
2019-06-01T00:26:11.865Z,4.70
2019-06-01T00:28:41.662Z,4.73
2019-06-01T00:31:10.937Z,4.67
2019-06-01T00:33:41.179Z,5.20
2019-06-01T00:36:10.394Z,4.67
2019-06-01T00:38:39.677Z,5.27
2019-06-01T00:41:08.887Z,4.70
2019-06-01T00:43:38.147Z,4.93
2019-06-01T00:46:07.651Z,4.90
2019-06-01T00:48:36.891Z,4.77
2019-06-01T00:51:06.111Z,5.03
2019-06-01T00:53:35.345Z,5.30
2019-06-01T00:56:04.559Z,4.93
2019-06-01T00:58:33.801Z,5.20
2019-06-01T01:01:03.293Z,4.63
2019-06-01T01:03:32.809Z,4.93
2019-06-01T01:06:02.052Z,5.20
2019-06-01T01:08:31.591Z,4.87
2019-06-01T01:11:00.800Z,4.80
2019-06-01T01:13:30.429Z,5.27
2019-06-01T01:15:59.628Z,5.00
2019-06-01T01:18:28.881Z,4.80
2019-06-01T01:20:58.290Z,4.90
2019-06-01T01:23:27.571Z,5.10
2019-06-01T01:25:56.786Z,5.00
2019-06-01T01:28:26.129Z,5.00
2019-06-01T01:31:06.859Z,4.70
2019-06-01T01:33:26.576Z,4.20
2019-06-01T01:35:55.918Z,5.13
2019-06-01T01:38:25.103Z,5.30
2019-06-01T01:40:54.445Z,4.67
2019-06-01T01:43:23.931Z,4.93
2019-06-01T01:45:53.245Z,4.00
2019-06-01T01:48:22.471Z,4.40
2019-06-01T01:50:52.405Z,3.90
2019-06-01T01:53:21.743Z,3.47
2019-06-01T01:55:51.055Z,4.53
2019-06-01T01:58:20.465Z,4.80
2019-06-01T02:00:52.953Z,5.47
2019-06-01T02:03:21.523Z,5.23
2019-06-01T02:05:50.869Z,5.10
2019-06-01T02:08:20.072Z,5.13
2019-06-01T02:10:49.349Z,5.13
2019-06-01T02:13:18.660Z,5.20
2019-06-01T02:15:47.985Z,5.40
2019-06-01T02:18:17.203Z,4.80
2019-06-01T02:20:46.833Z,4.63
2019-06-01T02:23:16.042Z,5.00
2019-06-01T02:25:45.467Z,4.97
2019-06-01T02:28:14.706Z,6.08
2019-06-01T02:30:43.985Z,5.33
2019-06-01T02:33:13.222Z,4.67
2019-06-01T02:35:42.521Z,5.23
2019-06-01T02:38:11.748Z,4.70
2019-06-01T02:40:41.000Z,5.03
2019-06-01T02:43:10.248Z,4.67
2019-06-01T02:45:39.473Z,4.40
2019-06-01T02:48:08.805Z,4.63
2019-06-01T02:50:38.071Z,4.30
2019-06-01T02:53:09.379Z,4.30
2019-06-01T02:55:38.642Z,3.93
2019-06-01T02:58:07.847Z,4.30
2019-06-01T03:01:21.075Z,3.80
2019-06-01T03:03:51.992Z,4.40
2019-06-01T03:06:21.309Z,4.40
2019-06-01T03:08:52.894Z,4.27
2019-06-01T03:11:25.107Z,4.20
2019-06-01T03:13:58.262Z,4.40
2019-06-01T03:16:30.425Z,4.63
2019-06-01T03:19:03.691Z,4.17
2019-06-01T03:21:33.857Z,4.10
2019-06-01T03:24:08.142Z,4.50
2019-06-01T03:26:43.463Z,4.20
2019-06-01T03:29:16.726Z,4.03
2019-06-01T03:31:46.020Z,4.43
2019-06-01T03:34:15.245Z,4.30
2019-06-01T03:36:44.943Z,4.57
2019-06-01T03:39:14.179Z,4.53
2019-06-01T03:41:43.531Z,4.33
2019-06-01T03:44:13.088Z,4.30
2019-06-01T03:46:42.423Z,4.60
2019-06-01T03:49:12.029Z,4.73
2019-06-01T03:51:41.384Z,4.07
2019-06-01T03:54:10.706Z,4.40
2019-06-01T03:56:40.085Z,4.60
2019-06-01T03:59:09.497Z,4.67
2019-06-01T04:01:38.734Z,5.20
2019-06-01T04:04:09.320Z,4.87
2019-06-01T04:06:38.651Z,4.60
2019-06-01T04:09:09.740Z,4.20
2019-06-01T04:11:39.159Z,4.83
2019-06-01T04:14:09.645Z,4.37
2019-06-01T04:16:42.312Z,4.80
2019-06-01T04:19:12.167Z,4.40
2019-06-01T04:21:41.501Z,4.03
2019-06-01T04:24:10.779Z,4.53
2019-06-01T04:26:40.004Z,4.60
2019-06-01T04:29:10.362Z,4.50
2019-06-01T04:31:39.775Z,4.47
2019-06-01T04:34:09.379Z,4.43
2019-06-01T04:36:38.678Z,4.67
2019-06-01T04:39:09.457Z,4.80
2019-06-01T04:41:38.795Z,4.53
2019-06-01T04:44:08.157Z,4.47
2019-06-01T04:46:37.450Z,4.87
2019-06-01T04:49:06.721Z,4.47
2019-06-01T04:51:35.940Z,4.77
2019-06-01T04:54:06.839Z,4.60
2019-06-01T04:56:36.370Z,4.70
2019-06-01T04:59:07.087Z,4.73
2019-06-01T05:01:36.367Z,4.80
2019-06-01T05:09:34.424Z,4.60
2019-06-01T05:12:05.237Z,4.53
2019-06-01T05:14:35.375Z,4.90
2019-06-01T05:17:05.808Z,4.87
2019-06-01T05:19:36.283Z,4.67
2019-06-01T05:22:06.436Z,4.93
2019-06-01T05:24:36.776Z,4.73
2019-06-01T05:27:09.029Z,4.40
2019-06-01T05:29:40.016Z,4.70
2019-06-01T05:32:12.609Z,4.60
2019-06-01T05:34:46.659Z,4.57
2019-06-01T05:37:29.676Z,5.10
2019-06-01T05:40:01.326Z,5.00
2019-06-01T05:42:33.021Z,5.17
2019-06-01T05:45:03.086Z,4.93
2019-06-01T05:47:37.705Z,4.73
2019-06-01T05:50:10.473Z,5.23
2019-06-01T05:55:16.769Z,4.50
2019-06-01T05:57:46.017Z,4.63
2019-06-01T06:00:15.568Z,4.77
2019-06-01T06:02:45.459Z,5.13
2019-06-01T06:05:16.615Z,4.87
2019-06-01T06:07:46.382Z,4.80
2019-06-01T06:10:16.072Z,4.80
2019-06-01T06:12:45.498Z,5.10
2019-06-01T06:15:15.775Z,5.30
2019-06-01T06:17:45.088Z,4.80
2019-06-01T06:20:15.911Z,4.73
2019-06-01T06:22:45.332Z,4.60
2019-06-01T06:25:14.540Z,5.07
2019-06-01T06:27:43.793Z,4.83
2019-06-01T06:30:13.135Z,4.87
2019-06-01T06:32:42.496Z,4.50
2019-06-01T06:35:11.978Z,4.97
2019-06-01T06:37:43.359Z,5.07
2019-06-01T06:40:14.566Z,5.03
2019-06-01T06:42:43.933Z,5.10
2019-06-01T06:45:14.585Z,5.23
2019-06-01T06:47:44.356Z,5.00
2019-06-01T06:50:17.742Z,5.53
2019-06-01T06:52:48.300Z,4.90
2019-06-01T06:55:19.863Z,4.80
2019-06-01T06:57:50.390Z,4.60
2019-06-01T07:00:20.607Z,5.00
2019-06-01T07:02:51.183Z,4.70
2019-06-01T07:05:21.348Z,5.20
2019-06-01T07:07:50.799Z,4.90
2019-06-01T07:10:20.192Z,5.97
2019-06-01T07:12:50.809Z,4.67
2019-06-01T07:15:21.384Z,5.20
2019-06-01T07:17:55.119Z,4.83
2019-06-01T07:20:24.343Z,4.20
2019-06-01T07:22:53.648Z,4.60
2019-06-01T07:25:22.905Z,4.27
2019-06-01T07:27:52.284Z,4.60
2019-06-01T07:30:28.459Z,4.30
2019-06-01T07:32:57.904Z,4.80
2019-06-01T07:35:28.447Z,3.77
2019-06-01T07:38:18.371Z,4.30
2019-06-01T07:40:47.754Z,3.60
2019-06-01T07:44:18.163Z,4.07
2019-06-01T08:28:50.340Z,2.57
2019-06-01T08:31:39.513Z,2.60
2019-06-01T08:43:58.785Z,2.53
2019-06-01T08:47:34.048Z,3.07
2019-06-01T08:50:05.220Z,2.93
2019-06-01T08:52:34.492Z,2.63
2019-06-01T08:56:04.972Z,3.00
2019-06-01T08:58:50.236Z,2.50
2019-06-01T09:01:42.407Z,2.77
2019-06-01T09:07:02.119Z,2.50
2019-06-01T09:09:33.034Z,2.80
2019-06-01T09:12:31.374Z,2.80
2019-06-01T09:15:20.184Z,2.77
2019-06-01T09:17:49.548Z,2.70
2019-06-01T09:20:23.407Z,3.30
2019-06-01T09:23:03.686Z,2.60
2019-06-01T09:25:52.304Z,2.77
2019-06-01T09:28:21.694Z,2.83
2019-06-01T09:30:50.965Z,2.60
2019-06-01T09:34:06.539Z,3.27
2019-06-01T09:40:13.519Z,2.80
2019-06-01T09:42:42.809Z,2.33
2019-06-01T09:45:12.588Z,2.43
2019-06-01T09:47:42.679Z,3.00
2019-06-01T09:50:14.116Z,2.87
2019-06-01T09:52:47.700Z,2.70
2019-06-01T09:55:17.060Z,2.30
2019-06-01T09:57:48.996Z,2.43
2019-06-01T10:00:18.653Z,2.20
2019-06-01T10:02:47.881Z,2.13
2019-06-01T10:05:17.816Z,2.00
2019-06-01T10:07:47.060Z,2.00
2019-06-01T10:10:16.671Z,2.03
2019-06-01T10:12:45.918Z,2.03
2019-06-01T10:15:15.969Z,2.47
2019-06-01T10:17:45.258Z,2.10
2019-06-01T10:20:14.625Z,2.17
2019-06-01T10:23:06.913Z,1.90
2019-06-01T10:25:51.707Z,2.20
2019-06-01T10:30:54.273Z,2.20
2019-06-01T10:33:23.507Z,1.93
2019-06-01T10:35:52.812Z,2.00
2019-06-01T10:38:22.036Z,2.30
2019-06-01T10:40:51.651Z,1.90
2019-06-01T10:43:21.581Z,2.20
2019-06-01T10:45:50.947Z,2.27
2019-06-01T10:48:20.178Z,2.37
2019-06-01T10:50:49.823Z,2.10
2019-06-01T10:53:19.108Z,2.60
2019-06-01T10:55:48.714Z,2.10
2019-06-01T10:58:18.059Z,2.10
2019-06-01T11:00:51.019Z,2.23
2019-06-01T11:03:18.589Z,2.33
2019-06-01T11:05:52.304Z,2.27
2019-06-01T11:08:21.584Z,2.10
2019-06-01T11:10:53.703Z,2.07
2019-06-01T11:16:57.346Z,2.20
2019-06-01T11:28:21.698Z,2.30
2019-06-01T11:30:51.054Z,2.37
2019-06-01T11:33:20.409Z,1.97
2019-06-01T11:35:51.525Z,2.30
2019-06-01T11:38:20.740Z,2.10
2019-06-01T11:41:18.700Z,2.23
2019-06-01T11:43:47.723Z,2.30
2019-06-01T11:46:17.240Z,2.00
2019-06-01T11:48:46.561Z,2.60
2019-06-01T11:51:15.821Z,2.53
2019-06-01T11:53:45.695Z,2.40
2019-06-01T11:56:15.124Z,2.40
2019-06-01T11:58:45.510Z,2.33
2019-06-01T12:01:15.173Z,2.23
2019-06-01T12:03:46.065Z,2.30
2019-06-01T12:06:15.394Z,2.37
2019-06-01T12:08:44.686Z,2.30
2019-06-01T12:11:14.336Z,2.30
2019-06-01T12:13:44.491Z,2.50
2019-06-01T12:16:13.776Z,2.40
2019-06-01T12:18:44.624Z,2.23
2019-06-01T12:21:15.037Z,2.30
2019-06-01T12:23:45.629Z,2.43
2019-06-01T12:26:15.050Z,2.27
2019-06-01T12:28:45.731Z,2.17
2019-06-01T12:31:15.177Z,2.30
2019-06-01T12:33:46.273Z,2.07
2019-06-01T12:36:15.691Z,2.53
2019-06-01T12:38:52.244Z,2.30
2019-06-01T12:41:22.614Z,2.07
2019-06-01T12:44:10.949Z,2.33
2019-06-01T12:46:40.273Z,2.20
2019-06-01T12:49:09.642Z,2.50
2019-06-01T12:51:40.499Z,2.23
2019-06-01T12:54:10.382Z,2.08
2019-06-01T12:56:40.766Z,2.40
2019-06-01T12:59:10.043Z,2.10
2019-06-01T13:01:39.345Z,2.37
2019-06-01T13:04:08.909Z,2.10
2019-06-01T13:06:38.146Z,2.30
2019-06-01T13:09:09.020Z,2.27
2019-06-01T13:30:01.815Z,2.50
2019-06-01T13:32:31.693Z,2.08
2019-06-01T13:35:01.396Z,2.27
2019-06-01T13:37:30.649Z,2.27
2019-06-01T13:40:02.600Z,2.33
2019-06-01T13:42:33.165Z,2.42
2019-06-01T13:50:15.124Z,2.02
2019-06-01T13:52:45.823Z,2.12
2019-06-01T13:55:15.148Z,2.70
2019-06-01T13:57:44.369Z,2.27
2019-06-01T14:00:15.769Z,2.30
2019-06-01T14:02:49.593Z,2.20
2019-06-01T14:05:16.040Z,2.02
2019-06-01T14:07:45.512Z,2.40
2019-06-01T14:10:15.069Z,2.47
2019-06-01T14:12:45.244Z,2.00
2019-06-01T14:15:15.226Z,2.60
2019-06-01T14:17:45.921Z,2.22
2019-06-01T14:20:16.306Z,2.17
2019-06-01T14:22:45.899Z,2.20
2019-06-01T14:25:16.596Z,2.70
2019-06-01T14:27:46.118Z,2.10
2019-06-01T14:30:15.734Z,2.20
2019-06-01T14:32:46.169Z,2.37
2019-06-01T14:35:15.586Z,2.08
2019-06-01T14:37:44.826Z,2.27
2019-06-01T14:40:14.398Z,2.45
2019-06-01T14:42:44.101Z,2.20
2019-06-01T14:45:13.968Z,2.00
2019-06-01T14:47:43.501Z,2.60
2019-06-01T14:50:13.260Z,2.33
2019-06-01T14:52:42.952Z,2.33
2019-06-01T14:55:13.627Z,2.20
2019-06-01T14:57:42.848Z,2.40
2019-06-01T15:00:12.936Z,2.30
2019-06-01T15:02:42.454Z,2.45
2019-06-01T15:05:11.890Z,2.35
2019-06-01T15:07:41.135Z,2.37
2019-06-01T15:10:11.503Z,2.40
2019-06-01T15:12:40.775Z,2.50
2019-06-01T15:15:10.830Z,2.40
2019-06-01T15:17:42.532Z,2.17
2019-06-01T15:20:13.440Z,2.30
2019-06-01T15:22:42.708Z,2.30
2019-06-01T15:25:13.719Z,2.20
2019-06-01T15:27:42.980Z,2.27
2019-06-01T15:30:12.938Z,2.45
2019-06-01T15:32:42.361Z,2.35
2019-06-01T15:35:12.195Z,2.12
2019-06-01T15:37:41.448Z,2.25
2019-06-01T15:40:11.764Z,2.42
2019-06-01T15:42:42.600Z,2.15
2019-06-01T15:45:13.702Z,2.50
2019-06-01T15:47:43.336Z,2.35
2019-06-01T15:50:13.218Z,2.47
2019-06-01T15:52:42.852Z,2.20
2019-06-01T15:55:12.496Z,2.70
2019-06-01T15:57:43.133Z,2.50
2019-06-01T16:00:14.065Z,2.30
2019-06-01T16:02:43.721Z,2.15
2019-06-01T16:05:13.254Z,2.22
2019-06-01T16:07:42.917Z,2.22
2019-06-01T16:10:14.039Z,2.10
2019-06-01T16:12:43.295Z,2.50
2019-06-01T16:15:15.563Z,2.30
2019-06-01T16:17:44.960Z,2.45
2019-06-01T16:20:15.777Z,2.45
2019-06-01T16:22:45.041Z,2.25
2019-06-01T16:25:16.027Z,2.60
2019-06-01T16:27:45.556Z,2.35
2019-06-01T16:30:15.598Z,2.72
2019-06-01T16:32:44.903Z,2.40
2019-06-01T16:35:14.223Z,2.58
2019-06-01T16:37:43.458Z,2.58
2019-06-01T16:40:13.925Z,2.85
2019-06-01T16:42:44.525Z,2.50
2019-06-01T16:45:14.343Z,2.33
2019-06-01T16:47:43.991Z,2.17
2019-06-01T16:50:13.658Z,2.65
2019-06-01T16:52:43.040Z,2.40
2019-06-01T16:55:13.136Z,2.55
2019-06-01T16:57:42.529Z,2.77
2019-06-01T17:00:12.247Z,2.60
2019-06-01T17:02:45.432Z,2.58
2019-06-01T17:05:14.881Z,2.77
2019-06-01T17:07:44.186Z,2.72
2019-06-01T17:10:25.545Z,2.70
2019-06-01T17:12:45.697Z,2.77
2019-06-01T17:15:15.507Z,2.50
2019-06-01T17:17:45.391Z,2.65
2019-06-01T17:20:44.009Z,2.83
2019-06-01T17:23:27.495Z,2.98
2019-06-01T17:25:46.043Z,2.80
2019-06-01T17:28:16.244Z,2.87
2019-06-01T17:30:45.788Z,2.62
2019-06-01T17:33:15.359Z,2.95
2019-06-01T17:35:45.666Z,2.77
2019-06-01T17:38:15.298Z,3.30
2019-06-01T17:40:44.528Z,3.05
2019-06-01T17:43:14.220Z,3.00
2019-06-01T17:45:43.554Z,2.72
2019-06-01T17:48:25.801Z,2.62
2019-06-01T17:50:45.144Z,3.00
2019-06-01T17:53:14.406Z,2.95
2019-06-01T17:55:45.724Z,2.85
2019-06-01T17:58:15.204Z,3.55
2019-06-01T18:00:44.722Z,3.20
2019-06-01T18:03:14.123Z,3.80
2019-06-01T18:05:44.195Z,3.85
2019-06-01T18:08:14.086Z,3.67
2019-06-01T18:10:53.887Z,3.50
2019-06-01T18:13:16.018Z,3.15
2019-06-01T18:15:45.698Z,3.35
2019-06-01T18:18:15.660Z,3.05
2019-06-01T18:20:45.007Z,3.12
2019-06-01T18:23:14.540Z,2.52
2019-06-01T18:25:44.121Z,3.00
2019-06-01T18:28:19.061Z,3.12
2019-06-01T18:30:45.282Z,2.85
2019-06-01T18:33:14.831Z,2.87
2019-06-01T18:35:44.617Z,3.00
2019-06-01T18:38:14.848Z,3.20
2019-06-01T18:40:44.347Z,3.20
2019-06-01T18:43:17.235Z,3.20
2019-06-01T18:45:47.349Z,3.00
2019-06-01T18:48:17.984Z,3.10
2019-06-01T18:50:48.383Z,3.22
2019-06-01T18:53:17.743Z,2.95
2019-06-01T18:55:47.006Z,3.50
2019-06-01T18:58:17.617Z,3.27
2019-06-01T19:00:47.344Z,3.47
2019-06-01T19:03:19.950Z,3.67
2019-06-01T19:05:49.531Z,4.03
2019-06-01T19:08:18.785Z,3.57
2019-06-01T19:10:49.044Z,3.03
2019-06-01T19:13:19.021Z,3.30
2019-06-01T19:15:48.507Z,3.10
2019-06-01T19:18:17.833Z,3.23
2019-06-01T19:20:47.155Z,3.00
2019-06-01T19:23:21.412Z,3.53
2019-06-01T19:25:47.827Z,3.23
2019-06-01T19:28:17.919Z,3.77
2019-06-01T19:30:48.452Z,3.93
2019-06-01T19:33:19.396Z,3.60
2019-06-01T19:35:50.217Z,3.30
2019-06-01T19:38:21.571Z,3.53
2019-06-01T19:40:50.842Z,3.40
2019-06-01T19:43:20.532Z,3.53
2019-06-01T19:45:57.467Z,3.73
2019-06-01T19:48:33.059Z,3.50
2019-06-01T19:51:02.341Z,3.50
2019-06-01T19:53:31.668Z,3.50
2019-06-01T19:56:01.302Z,3.90
2019-06-01T19:58:30.958Z,3.90
2019-06-01T20:01:00.819Z,3.80
2019-06-01T20:03:30.246Z,4.27
2019-06-01T20:05:59.608Z,3.90
2019-06-01T20:08:29.687Z,3.60
2019-06-01T20:10:59.319Z,4.10
2019-06-01T20:13:28.544Z,3.93
2019-06-01T20:15:58.272Z,4.13
2019-06-01T20:18:27.555Z,4.37
2019-06-01T20:20:59.401Z,3.97
2019-06-01T20:23:28.629Z,3.70
2019-06-01T20:25:58.277Z,4.60
2019-06-01T20:28:28.261Z,4.20
2019-06-01T20:30:57.611Z,4.30
2019-06-01T20:33:26.892Z,3.97
2019-06-01T20:35:56.151Z,4.27
2019-06-01T20:38:25.913Z,4.40
2019-06-01T20:40:56.149Z,4.63
2019-06-01T20:43:25.936Z,4.97
2019-06-01T20:45:57.044Z,4.70
2019-06-01T20:48:26.411Z,4.80
2019-06-01T20:50:55.614Z,4.40
2019-06-01T20:53:24.887Z,4.60
2019-06-01T20:55:54.736Z,4.70
2019-06-01T20:58:24.962Z,4.60
2019-06-01T21:00:54.673Z,5.47
2019-06-01T21:03:24.519Z,5.70
2019-06-01T21:05:54.790Z,6.00
2019-06-01T21:08:24.313Z,5.37
2019-06-01T21:10:54.195Z,5.43
2019-06-01T21:13:24.175Z,6.00
2019-06-01T21:15:53.903Z,5.80
2019-06-01T21:18:23.185Z,5.53
2019-06-01T21:20:52.422Z,5.67
2019-06-01T21:23:22.545Z,5.80
2019-06-01T21:25:52.321Z,6.47
2019-06-01T21:28:22.459Z,6.30
2019-06-01T21:30:52.803Z,5.50
2019-06-01T21:33:25.363Z,5.80
2019-06-01T21:35:53.378Z,6.03
2019-06-01T21:38:23.722Z,5.53
2019-06-01T21:40:53.425Z,5.50
2019-06-01T21:43:29.503Z,5.57
2019-06-01T21:45:53.700Z,5.77
2019-06-01T21:48:23.873Z,6.43
2019-06-01T21:50:53.554Z,6.43
2019-06-01T21:53:22.821Z,6.67
2019-06-01T21:55:52.052Z,6.73
2019-06-01T21:58:22.722Z,6.03
2019-06-01T22:00:52.422Z,6.40
2019-06-01T22:03:23.126Z,6.20
2019-06-01T22:05:52.737Z,7.17
2019-06-01T22:08:23.162Z,7.63
2019-06-01T22:10:52.514Z,7.47
2019-06-01T22:13:27.088Z,8.67
2019-06-01T22:15:56.269Z,7.70
2019-06-01T22:20:46.841Z,8.60
2019-06-01T22:23:17.827Z,8.70
2019-06-01T22:25:47.162Z,8.47
2019-06-01T22:28:16.443Z,8.93
2019-06-01T22:30:45.704Z,8.70
2019-06-01T22:33:14.935Z,9.07
2019-06-01T22:35:44.742Z,8.13
2019-06-01T22:38:14.689Z,7.97
2019-06-01T22:40:44.159Z,7.97
2019-06-01T22:43:13.824Z,8.17
2019-06-01T22:45:43.141Z,8.10
2019-06-01T22:48:12.997Z,7.93
2019-06-01T22:50:42.299Z,7.47
2019-06-01T22:53:11.601Z,8.53
2019-06-01T22:55:40.857Z,8.83
2019-06-01T22:58:10.153Z,9.27
2019-06-01T23:00:39.823Z,9.97
2019-06-01T23:03:09.342Z,9.53
2019-06-01T23:05:38.603Z,9.30
2019-06-01T23:08:08.237Z,10.20
2019-06-01T23:10:38.161Z,8.87
2019-06-01T23:13:08.169Z,8.97
2019-06-01T23:15:37.606Z,8.77
2019-06-01T23:18:06.870Z,9.60
2019-06-01T23:20:36.218Z,9.10
2019-06-01T23:23:06.035Z,8.90
2019-06-01T23:25:35.308Z,8.40
2019-06-01T23:28:05.151Z,8.70
2019-06-01T23:30:34.443Z,8.27
2019-06-01T23:33:03.698Z,8.07
2019-06-01T23:35:33.248Z,7.93
2019-06-01T23:38:02.759Z,8.60
2019-06-01T23:40:33.273Z,8.47
2019-06-01T23:43:02.561Z,8.30
2019-06-01T23:45:32.989Z,8.73
2019-06-01T23:48:02.814Z,8.93
2019-06-01T23:50:32.555Z,9.87
2019-06-01T23:53:13.205Z,9.53
2019-06-01T23:55:34.092Z,9.27
2019-06-01T23:58:03.491Z,7.97
